Time;durP1;ratioP1;P1;durP2;ratioP2;P2;SDS_P1;SDS_P2;PMS_P1;PMS_P2;Temp;Humidity;BMP_temperature;BMP_pressure;BME280_temperature;BME280_humidity;BME280_pressure;Samples;Min_cycle;Max_cycle;Signal;HPM_P1;HPM_P2
2023/10/24 00:00:16;;;;;;;11.77;8.82;;;;;;;;;;5059824;28;20123;-78
2023/10/24 00:02:41;;;;;;;12.80;8.30;;;;;;;;;;5075706;28;20586;-78
2023/10/24 00:05:07;;;;;;;11.25;8.18;;;;;;;;;;5060399;28;20036;-78
2023/10/24 00:07:33;;;;;;;11.48;8.30;;;;;;;;;;5056770;28;20033;-78
2023/10/24 00:09:58;;;;;;;12.82;8.60;;;;;;;;;;5072307;28;20036;-78
2023/10/24 00:12:24;;;;;;;13.32;9.07;;;;;;;;;;5070220;28;20024;-78
2023/10/24 00:14:49;;;;;;;11.45;8.02;;;;;;;;;;5065598;28;20028;-77
2023/10/24 00:17:15;;;;;;;12.07;8.32;;;;;;;;;;5075707;28;20051;-77
2023/10/24 00:19:40;;;;;;;13.43;8.18;;;;;;;;;;5057334;28;20041;-78
2023/10/24 00:22:06;;;;;;;12.07;8.30;;;;;;;;;;5082327;28;20029;-78
2023/10/24 00:24:31;;;;;;;12.75;8.30;;;;;;;;;;5065237;28;20037;-78
2023/10/24 00:26:57;;;;;;;12.05;8.38;;;;;;;;;;5071703;28;20047;-78
2023/10/24 00:29:23;;;;;;;10.68;7.93;;;;;;;;;;5064695;28;20495;-78
2023/10/24 00:31:49;;;;;;;14.65;8.15;;;;;;;;;;5068617;28;20041;-78
2023/10/24 00:34:14;;;;;;;12.18;8.65;;;;;;;;;;5061440;28;20567;-78
2023/10/24 00:36:41;;;;;;;13.32;8.70;;;;;;;;;;5051565;28;20028;-77
2023/10/24 00:39:08;;;;;;;10.73;7.90;;;;;;;;;;5052537;28;20039;-78
2023/10/24 00:41:33;;;;;;;13.77;8.95;;;;;;;;;;5073816;28;20048;-78
2023/10/24 00:43:59;;;;;;;11.23;8.13;;;;;;;;;;5045910;28;20050;-78
2023/10/24 00:46:24;;;;;;;11.75;8.93;;;;;;;;;;5058946;28;20044;-78
2023/10/24 00:48:50;;;;;;;12.77;8.77;;;;;;;;;;5050386;28;20040;-78
2023/10/24 00:51:16;;;;;;;13.13;8.40;;;;;;;;;;5072659;28;20033;-77
2023/10/24 00:53:41;;;;;;;12.70;8.18;;;;;;;;;;5053374;28;20400;-78
2023/10/24 00:56:08;;;;;;;11.35;8.55;;;;;;;;;;5070107;28;20051;-78
2023/10/24 00:58:36;;;;;;;12.90;8.88;;;;;;;;;;5073110;28;20556;-78
2023/10/24 01:01:02;;;;;;;10.63;8.15;;;;;;;;;;5057864;28;20029;-78
2023/10/24 01:03:28;;;;;;;12.88;8.90;;;;;;;;;;5054491;28;20047;-78
2023/10/24 01:05:53;;;;;;;17.88;9.20;;;;;;;;;;5055476;28;20492;-77
2023/10/24 01:08:19;;;;;;;13.85;8.77;;;;;;;;;;5072022;28;20173;-78
2023/10/24 01:10:44;;;;;;;14.20;8.93;;;;;;;;;;5069854;28;20025;-78
2023/10/24 01:13:09;;;;;;;15.60;8.88;;;;;;;;;;5071740;28;20698;-77
2023/10/24 01:15:35;;;;;;;15.38;8.32;;;;;;;;;;5051536;28;20042;-78
2023/10/24 01:18:02;;;;;;;13.45;8.50;;;;;;;;;;5055356;28;20122;-78
2023/10/24 01:20:28;;;;;;;14.48;8.25;;;;;;;;;;5070679;28;20059;-79
2023/10/24 01:22:53;;;;;;;12.55;8.98;;;;;;;;;;5060174;28;20121;-78
2023/10/24 01:25:19;;;;;;;12.77;8.75;;;;;;;;;;5058513;28;20028;-78
2023/10/24 01:27:45;;;;;;;13.13;8.68;;;;;;;;;;5070981;28;20039;-78
2023/10/24 01:30:11;;;;;;;11.57;9.02;;;;;;;;;;5072401;28;20384;-78
2023/10/24 01:32:37;;;;;;;13.88;9.23;;;;;;;;;;5056899;28;20044;-78
2023/10/24 01:35:02;;;;;;;13.25;8.35;;;;;;;;;;5052324;28;20436;-78
2023/10/24 01:37:28;;;;;;;15.50;8.32;;;;;;;;;;5041647;28;20419;-78
2023/10/24 01:39:54;;;;;;;13.32;7.95;;;;;;;;;;5053541;28;20489;-78
2023/10/24 01:42:19;;;;;;;12.77;8.65;;;;;;;;;;5053402;28;20120;-78
2023/10/24 01:44:44;;;;;;;12.38;8.70;;;;;;;;;;5043922;28;20051;-78
2023/10/24 01:47:10;;;;;;;13.55;8.25;;;;;;;;;;5056587;28;20605;-78
2023/10/24 01:49:35;;;;;;;12.75;8.60;;;;;;;;;;5055555;28;20029;-78
2023/10/24 01:52:00;;;;;;;15.50;9.05;;;;;;;;;;5053260;28;20035;-78
2023/10/24 01:54:26;;;;;;;13.57;8.27;;;;;;;;;;5067067;28;20066;-78
2023/10/24 01:56:51;;;;;;;13.25;8.55;;;;;;;;;;5059115;28;20129;-78
2023/10/24 01:59:17;;;;;;;11.23;8.50;;;;;;;;;;5085287;28;20489;-78
2023/10/24 02:01:42;;;;;;;13.15;8.55;;;;;;;;;;5058036;28;20124;-79
2023/10/24 02:04:08;;;;;;;12.00;7.97;;;;;;;;;;5051805;28;20076;-79
2023/10/24 02:06:33;;;;;;;14.15;8.77;;;;;;;;;;5058550;28;20388;-78
2023/10/24 02:09:02;;;;;;;13.50;8.65;;;;;;;;;;5079026;28;20036;-79
2023/10/24 02:11:27;;;;;;;11.80;8.10;;;;;;;;;;5061496;28;20117;-78
2023/10/24 02:13:53;;;;;;;13.38;8.10;;;;;;;;;;5055246;28;20559;-78
2023/10/24 02:16:18;;;;;;;13.77;8.45;;;;;;;;;;5048793;28;20037;-79
2023/10/24 02:18:43;;;;;;;13.00;8.65;;;;;;;;;;5059885;28;20078;-79
2023/10/24 02:21:09;;;;;;;12.05;8.38;;;;;;;;;;5054839;28;20500;-78
2023/10/24 02:23:37;;;;;;;13.27;9.45;;;;;;;;;;5041463;28;20043;-79
2023/10/24 02:26:02;;;;;;;;;;;;;;;;;;5054916;28;20903;-78
2023/10/24 02:28:28;;;;;;;14.13;8.60;;;;;;;;;;5052966;28;19928;-79
2023/10/24 02:30:53;;;;;;;13.15;7.93;;;;;;;;;;5039972;28;20032;-78
2023/10/24 02:33:18;;;;;;;17.35;8.45;;;;;;;;;;5055000;28;20120;-78
2023/10/24 02:35:44;;;;;;;14.30;8.98;;;;;;;;;;5064558;28;20037;-79
2023/10/24 02:38:09;;;;;;;11.68;8.00;;;;;;;;;;5053099;28;20033;-79
2023/10/24 02:40:35;;;;;;;11.18;7.82;;;;;;;;;;5046311;28;20032;-78
2023/10/24 02:43:00;;;;;;;13.43;8.30;;;;;;;;;;5055379;28;20745;-79
2023/10/24 02:45:26;;;;;;;15.05;8.48;;;;;;;;;;5046448;28;20083;-79
2023/10/24 02:47:52;;;;;;;13.65;8.15;;;;;;;;;;5045884;28;20511;-79
2023/10/24 02:50:17;;;;;;;12.15;8.52;;;;;;;;;;5042460;28;20029;-79
2023/10/24 02:52:43;;;;;;;14.00;7.93;;;;;;;;;;5041876;28;20040;-80
2023/10/24 02:55:09;;;;;;;13.30;8.07;;;;;;;;;;5045286;28;20032;-80
2023/10/24 02:57:34;;;;;;;13.07;8.52;;;;;;;;;;5053021;28;20037;-80
2023/10/24 03:00:00;;;;;;;15.43;8.35;;;;;;;;;;5054788;28;20036;-78
2023/10/24 03:02:25;;;;;;;15.73;7.97;;;;;;;;;;5052307;28;20964;-79
2023/10/24 03:04:51;;;;;;;16.30;8.13;;;;;;;;;;5054617;28;20037;-79
2023/10/24 03:07:16;;;;;;;13.98;8.43;;;;;;;;;;5043413;28;20040;-80
2023/10/24 03:10:02;;;;;;;13.30;8.43;;;;;;;;;;5053966;28;20029;-78
2023/10/24 03:12:27;;;;;;;16.17;8.48;;;;;;;;;;5040269;28;20044;-79
2023/10/24 03:14:53;;;;;;;14.45;8.20;;;;;;;;;;5052217;28;21088;-79
2023/10/24 03:17:18;;;;;;;14.20;8.48;;;;;;;;;;5035594;28;20037;-80
2023/10/24 03:19:44;;;;;;;12.88;8.32;;;;;;;;;;5044714;28;20060;-79
2023/10/24 03:22:09;;;;;;;14.27;8.18;;;;;;;;;;5033169;28;20070;-79
2023/10/24 03:24:35;;;;;;;12.73;8.38;;;;;;;;;;5033805;28;20041;-79
2023/10/24 03:27:00;;;;;;;14.13;8.75;;;;;;;;;;5017506;28;20535;-79
2023/10/24 03:29:26;;;;;;;11.13;8.05;;;;;;;;;;5042259;28;20130;-79
2023/10/24 03:31:51;;;;;;;13.82;8.35;;;;;;;;;;5043686;28;20037;-78
2023/10/24 03:34:17;;;;;;;13.20;8.55;;;;;;;;;;5038296;28;20071;-78
2023/10/24 03:36:42;;;;;;;12.40;8.10;;;;;;;;;;5036788;28;20492;-79
2023/10/24 03:39:08;;;;;;;12.70;8.18;;;;;;;;;;5022253;28;20033;-80
2023/10/24 03:41:34;;;;;;;14.57;8.10;;;;;;;;;;5035796;28;20045;-80
2023/10/24 03:44:00;;;;;;;13.00;8.52;;;;;;;;;;5029449;28;20558;-79
2023/10/24 03:46:25;;;;;;;16.52;7.82;;;;;;;;;;5031751;28;20060;-80
2023/10/24 03:48:52;;;;;;;12.63;8.25;;;;;;;;;;5044454;28;20105;-80
2023/10/24 03:51:17;;;;;;;15.57;9.18;;;;;;;;;;5057730;28;20124;-81
2023/10/24 03:53:43;;;;;;;15.48;8.27;;;;;;;;;;5055691;28;20624;-78
2023/10/24 03:56:08;;;;;;;12.95;7.75;;;;;;;;;;5039241;28;20044;-76
2023/10/24 03:58:33;;;;;;;18.58;9.02;;;;;;;;;;5034552;28;20045;-76
2023/10/24 04:01:06;;;;;;;15.52;8.65;;;;;;;;;;5038776;28;20032;-77
2023/10/24 04:03:31;;;;;;;15.02;8.98;;;;;;;;;;5053663;28;20040;-77
2023/10/24 04:05:57;;;;;;;14.88;8.65;;;;;;;;;;5048260;28;20037;-78
2023/10/24 04:08:22;;;;;;;16.75;9.50;;;;;;;;;;5052914;28;20040;-78
2023/10/24 04:10:48;;;;;;;14.38;9.07;;;;;;;;;;5038418;28;20032;-78
2023/10/24 04:13:13;;;;;;;15.30;9.27;;;;;;;;;;5052328;28;20037;-77
2023/10/24 04:15:38;;;;;;;13.38;9.13;;;;;;;;;;5046950;28;20041;-78
2023/10/24 04:18:04;;;;;;;14.68;9.57;;;;;;;;;;5042057;28;20061;-78
2023/10/24 04:20:30;;;;;;;14.40;9.73;;;;;;;;;;5051105;28;20041;-77
2023/10/24 04:23:00;;;;;;;16.30;9.73;;;;;;;;;;5053212;28;20144;-77
2023/10/24 04:25:26;;;;;;;13.70;9.75;;;;;;;;;;5050242;28;20056;-77
2023/10/24 04:27:52;;;;;;;17.73;9.77;;;;;;;;;;5038633;28;20045;-76
2023/10/24 04:30:17;;;;;;;14.93;10.25;;;;;;;;;;5040961;28;20090;-79
2023/10/24 04:32:42;;;;;;;15.40;9.68;;;;;;;;;;5050531;28;20048;-78
2023/10/24 04:35:08;;;;;;;14.52;9.88;;;;;;;;;;5054238;28;20495;-78
2023/10/24 04:37:33;;;;;;;17.02;9.52;;;;;;;;;;5051762;28;20049;-78
2023/10/24 04:39:59;;;;;;;16.20;10.20;;;;;;;;;;5035734;28;20029;-78
2023/10/24 04:42:24;;;;;;;16.90;10.18;;;;;;;;;;5038108;28;20045;-78
2023/10/24 04:44:50;;;;;;;15.43;10.02;;;;;;;;;;5038693;28;20045;-78
2023/10/24 04:47:15;;;;;;;18.85;11.43;;;;;;;;;;5051786;28;20055;-78
2023/10/24 04:49:56;;;;;;;16.27;10.05;;;;;;;;;;5032472;28;20055;-78
2023/10/24 04:52:21;;;;;;;18.48;9.80;;;;;;;;;;5050158;28;20028;-79
2023/10/24 04:54:47;;;;;;;35.15;19.38;;;;;;;;;;5052808;28;20055;-79
2023/10/24 04:57:12;;;;;;;18.50;11.43;;;;;;;;;;5065961;28;20046;-79
2023/10/24 04:59:38;;;;;;;14.98;9.82;;;;;;;;;;5053847;28;20134;-78
2023/10/24 05:02:04;;;;;;;18.30;10.07;;;;;;;;;;5045929;28;20051;-79
2023/10/24 05:04:30;;;;;;;14.18;10.07;;;;;;;;;;5057793;28;20361;-78
2023/10/24 05:06:55;;;;;;;16.55;10.45;;;;;;;;;;5036753;28;20458;-77
2023/10/24 05:09:25;;;;;;;15.70;9.73;;;;;;;;;;5043517;28;20079;-78
2023/10/24 05:11:50;;;;;;;15.20;9.40;;;;;;;;;;5049993;28;20040;-78
2023/10/24 05:14:16;;;;;;;15.57;9.45;;;;;;;;;;5037954;28;20507;-77
2023/10/24 05:16:41;;;;;;;15.63;10.07;;;;;;;;;;5051554;28;20037;-77
2023/10/24 05:19:07;;;;;;;16.38;10.10;;;;;;;;;;5032145;28;20056;-78
2023/10/24 05:21:32;;;;;;;14.45;9.88;;;;;;;;;;5046748;28;20564;-78
2023/10/24 05:23:58;;;;;;;15.05;9.85;;;;;;;;;;5049197;28;20036;-78
2023/10/24 05:26:24;;;;;;;20.75;10.60;;;;;;;;;;5036278;28;20041;-78
2023/10/24 05:28:49;;;;;;;14.52;9.50;;;;;;;;;;5049336;28;20551;-78
2023/10/24 05:31:15;;;;;;;15.00;9.98;;;;;;;;;;5038461;28;20031;-78
2023/10/24 05:33:41;;;;;;;16.55;9.90;;;;;;;;;;5043632;28;20037;-78
2023/10/24 05:36:19;;;;;;;16.35;9.90;;;;;;;;;;5033907;28;20527;-78
2023/10/24 05:38:45;;;;;;;14.50;10.00;;;;;;;;;;5053336;28;20540;-78
2023/10/24 05:41:11;;;;;;;13.82;9.25;;;;;;;;;;5045639;28;20048;-78
2023/10/24 05:43:38;;;;;;;13.70;9.32;;;;;;;;;;5040333;28;20045;-78
2023/10/24 05:46:05;;;;;;;19.33;9.48;;;;;;;;;;5026776;28;20102;-78
2023/10/24 05:48:31;;;;;;;16.17;9.50;;;;;;;;;;5038897;28;20479;-78
2023/10/24 05:50:57;;;;;;;16.58;9.35;;;;;;;;;;5052864;28;20044;-78
2023/10/24 05:53:25;;;;;;;18.02;10.00;;;;;;;;;;5035916;28;20045;-78
2023/10/24 05:56:11;;;;;;;19.27;9.95;;;;;;;;;;5050334;28;20039;-78
2023/10/24 05:58:37;;;;;;;16.65;9.38;;;;;;;;;;5026071;28;20045;-77
2023/10/24 06:01:05;;;;;;;15.70;10.07;;;;;;;;;;5016596;28;20037;-78
2023/10/24 06:03:39;;;;;;;17.15;9.80;;;;;;;;;;4996517;28;20848;-78
2023/10/24 06:06:05;;;;;;;16.00;9.30;;;;;;;;;;5004749;28;20052;-78
2023/10/24 06:08:31;;;;;;;18.35;11.38;;;;;;;;;;4997949;28;20746;-78
2023/10/24 06:10:58;;;;;;;17.10;10.23;;;;;;;;;;4987315;28;20118;-78
2023/10/24 06:13:25;;;;;;;19.08;10.52;;;;;;;;;;5001310;28;20440;-78
2023/10/24 06:15:51;;;;;;;;;;;;;;;;;;4998793;28;20033;-78
2023/10/24 06:18:17;;;;;;;15.73;10.45;;;;;;;;;;5003817;28;19916;-78
2023/10/24 06:20:46;;;;;;;20.15;10.13;;;;;;;;;;4995263;28;20402;-78
2023/10/24 06:23:11;;;;;;;13.80;9.45;;;;;;;;;;5013103;28;20115;-78
2023/10/24 06:25:41;;;;;;;14.82;9.38;;;;;;;;;;4990446;28;20038;-78
2023/10/24 06:28:07;;;;;;;16.65;9.98;;;;;;;;;;5002700;28;20463;-78
2023/10/24 06:30:33;;;;;;;17.00;9.20;;;;;;;;;;5008004;28;20041;-78
2023/10/24 06:32:59;;;;;;;15.20;9.02;;;;;;;;;;5004001;28;20079;-78
2023/10/24 06:35:25;;;;;;;14.60;9.20;;;;;;;;;;5020760;28;20086;-78
2023/10/24 06:37:51;;;;;;;15.32;9.00;;;;;;;;;;5035624;28;20033;-78
2023/10/24 06:40:16;;;;;;;15.38;8.88;;;;;;;;;;5055473;28;20041;-78
2023/10/24 06:42:42;;;;;;;16.48;8.75;;;;;;;;;;5073860;28;20480;-78
2023/10/24 06:45:08;;;;;;;14.45;9.23;;;;;;;;;;5059922;28;20039;-78
2023/10/24 06:47:36;;;;;;;13.15;8.98;;;;;;;;;;5060511;28;20040;-78
2023/10/24 06:50:02;;;;;;;14.82;8.93;;;;;;;;;;5058756;28;20656;-77
2023/10/24 06:52:28;;;;;;;16.20;9.18;;;;;;;;;;5057964;28;20040;-78
2023/10/24 06:54:56;;;;;;;14.95;9.32;;;;;;;;;;5053126;28;20116;-78
2023/10/24 06:57:25;;;;;;;13.43;8.73;;;;;;;;;;5056573;28;20507;-78
2023/10/24 06:59:51;;;;;;;14.85;8.80;;;;;;;;;;5061066;28;20040;-77
2023/10/24 07:02:17;;;;;;;15.50;8.57;;;;;;;;;;5073792;28;20047;-77
2023/10/24 07:04:43;;;;;;;14.20;8.60;;;;;;;;;;5070428;28;20122;-77
2023/10/24 07:07:08;;;;;;;14.73;8.93;;;;;;;;;;5059841;28;20044;-77
2023/10/24 07:09:34;;;;;;;18.58;8.90;;;;;;;;;;5072949;28;20032;-77
2023/10/24 07:11:59;;;;;;;14.45;8.82;;;;;;;;;;5065098;28;20148;-77
2023/10/24 07:14:25;;;;;;;16.27;8.55;;;;;;;;;;5054943;28;20387;-77
2023/10/24 07:16:51;;;;;;;15.15;8.38;;;;;;;;;;5072710;28;20028;-77
2023/10/24 07:19:18;;;;;;;13.40;8.57;;;;;;;;;;5074689;28;20043;-78
2023/10/24 07:21:43;;;;;;;15.68;9.00;;;;;;;;;;5060964;28;20081;-78
2023/10/24 07:24:09;;;;;;;11.15;7.72;;;;;;;;;;5072730;28;20064;-77
2023/10/24 07:26:34;;;;;;;13.57;8.32;;;;;;;;;;5070891;28;20143;-76
2023/10/24 07:29:00;;;;;;;15.35;7.88;;;;;;;;;;5065622;28;20040;-77
2023/10/24 07:31:26;;;;;;;14.63;8.02;;;;;;;;;;5053861;28;20097;-77
2023/10/24 07:33:54;;;;;;;13.85;8.20;;;;;;;;;;5064949;28;20518;-77
2023/10/24 07:36:19;;;;;;;14.60;8.13;;;;;;;;;;5064698;28;20039;-77
2023/10/24 07:38:45;;;;;;;16.15;8.73;;;;;;;;;;5075917;28;20507;-75
2023/10/24 07:41:13;;;;;;;11.13;7.85;;;;;;;;;;5057653;28;20032;-77
2023/10/24 07:43:39;;;;;;;14.05;9.13;;;;;;;;;;5060971;28;20067;-77
2023/10/24 07:46:05;;;;;;;13.55;8.27;;;;;;;;;;5065117;28;20040;-77
2023/10/24 07:48:31;;;;;;;13.77;7.93;;;;;;;;;;5059629;28;20039;-77
2023/10/24 07:50:57;;;;;;;13.85;8.48;;;;;;;;;;5051072;28;20590;-78
2023/10/24 07:53:24;;;;;;;13.25;8.00;;;;;;;;;;5037671;28;20095;-77
2023/10/24 07:55:50;;;;;;;16.25;8.13;;;;;;;;;;5052311;28;20400;-77
2023/10/24 07:58:16;;;;;;;12.52;8.20;;;;;;;;;;5056401;28;20447;-77
2023/10/24 08:00:43;;;;;;;14.02;7.95;;;;;;;;;;5055544;28;20575;-77
2023/10/24 08:03:09;;;;;;;12.30;7.97;;;;;;;;;;5036483;28;20106;-77
2023/10/24 08:05:35;;;;;;;11.80;8.20;;;;;;;;;;5052010;28;20400;-77
2023/10/24 08:08:00;;;;;;;14.63;8.35;;;;;;;;;;5052147;28;20043;-77
2023/10/24 08:10:26;;;;;;;18.35;8.55;;;;;;;;;;5049973;28;20128;-77
2023/10/24 08:12:51;;;;;;;13.30;7.85;;;;;;;;;;5044127;28;20063;-77
2023/10/24 08:15:17;;;;;;;13.52;8.52;;;;;;;;;;5057742;28;20039;-77
2023/10/24 08:17:42;;;;;;;13.32;7.85;;;;;;;;;;5048731;28;20033;-77
2023/10/24 08:20:08;;;;;;;11.55;7.75;;;;;;;;;;5055085;28;20496;-78
2023/10/24 08:22:33;;;;;;;13.48;8.55;;;;;;;;;;5065066;28;20458;-77
2023/10/24 08:25:01;;;;;;;12.48;7.93;;;;;;;;;;5038315;28;20033;-77
2023/10/24 08:27:27;;;;;;;12.43;8.07;;;;;;;;;;5050333;28;20025;-77
2023/10/24 08:29:52;;;;;;;16.60;10.75;;;;;;;;;;5043813;28;20033;-78
2023/10/24 08:32:17;;;;;;;12.52;8.70;;;;;;;;;;5040335;28;20035;-78
2023/10/24 08:34:43;;;;;;;13.77;8.02;;;;;;;;;;5054075;28;20033;-77
2023/10/24 08:37:09;;;;;;;13.45;8.32;;;;;;;;;;5032734;28;20036;-77
2023/10/24 08:39:34;;;;;;;12.35;8.50;;;;;;;;;;5038500;28;20161;-77
2023/10/24 08:42:00;;;;;;;13.40;8.82;;;;;;;;;;5054477;28;20068;-77
2023/10/24 08:47:29;;;;;;;13.77;7.95;;;;;;;;;;5028540;28;20056;-77
2023/10/24 08:49:56;;;;;;;14.70;8.85;;;;;;;;;;5052348;28;20115;-77
2023/10/24 08:52:22;;;;;;;13.20;8.38;;;;;;;;;;5072709;28;20482;-77
2023/10/24 08:54:51;;;;;;;13.85;7.70;;;;;;;;;;5060190;28;20115;-77
2023/10/24 08:57:20;;;;;;;11.05;7.93;;;;;;;;;;5073235;28;20500;-77
2023/10/24 08:59:46;;;;;;;12.43;7.85;;;;;;;;;;5058438;28;20032;-77
2023/10/24 09:02:14;;;;;;;13.38;8.90;;;;;;;;;;5055972;28;20044;-77
2023/10/24 09:04:42;;;;;;;18.30;8.52;;;;;;;;;;5053918;28;20120;-77
2023/10/24 09:07:08;;;;;;;16.85;9.30;;;;;;;;;;5062251;28;20451;-77
2023/10/24 09:09:33;;;;;;;14.70;8.65;;;;;;;;;;5064048;28;20060;-77
2023/10/24 09:12:03;;;;;;;14.20;8.65;;;;;;;;;;5071186;28;20039;-77
2023/10/24 09:14:29;;;;;;;16.60;8.38;;;;;;;;;;5056692;28;20056;-77
2023/10/24 09:16:58;;;;;;;16.88;8.68;;;;;;;;;;5057508;28;21043;-78
2023/10/24 09:19:24;;;;;;;17.02;8.63;;;;;;;;;;5053954;28;20037;-77
2023/10/24 09:21:50;;;;;;;13.52;7.93;;;;;;;;;;5054833;28;20508;-78
2023/10/24 09:24:16;;;;;;;13.68;8.02;;;;;;;;;;5051914;28;20032;-77
2023/10/24 09:26:55;;;;;;;12.80;7.35;;;;;;;;;;5064072;28;20093;-76
2023/10/24 09:29:21;;;;;;;12.98;7.82;;;;;;;;;;5081307;28;20437;-78
2023/10/24 09:31:48;;;;;;;13.93;8.77;;;;;;;;;;5062344;28;20135;-77
2023/10/24 09:34:15;;;;;;;13.98;8.82;;;;;;;;;;5058811;28;20126;-77
2023/10/24 09:36:41;;;;;;;12.88;7.63;;;;;;;;;;5068638;28;20032;-77
2023/10/24 09:39:29;;;;;;;14.23;8.13;;;;;;;;;;5057828;28;20043;-77
2023/10/24 09:41:54;;;;;;;15.57;8.23;;;;;;;;;;5053793;28;20040;-77
2023/10/24 09:44:20;;;;;;;15.05;7.88;;;;;;;;;;5041093;28;20037;-76
2023/10/24 09:47:06;;;;;;;12.35;8.40;;;;;;;;;;5002034;28;20047;-77
2023/10/24 09:49:32;;;;;;;13.98;8.80;;;;;;;;;;5056029;28;20040;-77
2023/10/24 09:51:57;;;;;;;13.30;8.23;;;;;;;;;;5021307;28;20037;-77
2023/10/24 09:54:23;;;;;;;13.57;7.88;;;;;;;;;;5028430;28;20059;-77
2023/10/24 09:56:50;;;;;;;17.13;8.43;;;;;;;;;;5030384;28;20057;-77
2023/10/24 09:59:16;;;;;;;18.87;9.47;;;;;;;;;;5018647;28;20036;-77
2023/10/24 10:01:42;;;;;;;14.48;8.30;;;;;;;;;;5050217;28;20029;-77
2023/10/24 10:04:08;;;;;;;12.07;8.32;;;;;;;;;;5052716;28;20032;-77
2023/10/24 10:06:34;;;;;;;15.02;8.38;;;;;;;;;;5028820;28;20518;-77
2023/10/24 10:09:00;;;;;;;12.73;8.18;;;;;;;;;;5046231;28;20444;-77
2023/10/24 10:11:30;;;;;;;15.85;8.40;;;;;;;;;;5042021;28;20037;-77
2023/10/24 10:14:15;;;;;;;15.95;7.97;;;;;;;;;;5056216;28;20033;-78
2023/10/24 10:17:00;;;;;;;14.70;8.63;;;;;;;;;;5048357;28;20041;-77
2023/10/24 10:19:32;;;;;;;14.90;8.85;;;;;;;;;;5050662;28;20061;-77
2023/10/24 10:22:23;;;;;;;15.23;8.45;;;;;;;;;;5056689;28;20033;-77
2023/10/24 10:25:15;;;;;;;13.75;9.45;;;;;;;;;;5045272;28;20032;-78
2023/10/24 10:28:13;;;;;;;17.13;9.20;;;;;;;;;;5077549;28;20033;-78
2023/10/24 10:30:48;;;;;;;12.95;8.40;;;;;;;;;;5077510;28;20670;-77
2023/10/24 10:33:18;;;;;;;13.10;8.77;;;;;;;;;;5065871;28;20543;-76
2023/10/24 10:36:01;;;;;;;15.05;8.50;;;;;;;;;;5051346;28;20392;-77
2023/10/24 10:38:47;;;;;;;12.52;8.35;;;;;;;;;;5049250;28;20036;-77
2023/10/24 10:41:21;;;;;;;13.98;8.77;;;;;;;;;;5059653;28;20032;-76
2023/10/24 10:43:55;;;;;;;16.15;9.38;;;;;;;;;;5074295;28;20456;-76
2023/10/24 10:46:24;;;;;;;14.45;8.98;;;;;;;;;;5048830;28;20584;-77
2023/10/24 10:48:50;;;;;;;14.68;8.60;;;;;;;;;;5064951;28;20032;-76
2023/10/24 10:51:17;;;;;;;13.95;8.82;;;;;;;;;;5061808;28;20411;-77
2023/10/24 10:54:22;;;;;;;14.70;8.63;;;;;;;;;;5050667;28;20233;-77
2023/10/24 10:56:48;;;;;;;15.60;9.23;;;;;;;;;;5057408;28;20037;-77
2023/10/24 10:59:33;;;;;;;14.70;8.55;;;;;;;;;;5040334;28;20496;-77
2023/10/24 11:02:20;;;;;;;15.85;8.60;;;;;;;;;;5037826;28;20029;-76
2023/10/24 11:04:46;;;;;;;14.25;8.45;;;;;;;;;;5052925;28;20484;-77
2023/10/24 11:07:14;;;;;;;14.75;8.93;;;;;;;;;;5051216;28;20051;-77
2023/10/24 11:09:44;;;;;;;15.23;8.68;;;;;;;;;;5016426;28;20038;-78
2023/10/24 11:12:21;;;;;;;13.65;9.15;;;;;;;;;;5045233;28;20045;-77
2023/10/24 11:15:14;;;;;;;16.00;9.20;;;;;;;;;;5042551;28;20037;-77
2023/10/24 11:17:43;;;;;;;12.73;9.10;;;;;;;;;;5054884;28;20046;-78
2023/10/24 11:20:10;;;;;;;13.77;8.48;;;;;;;;;;5053797;28;20028;-78
2023/10/24 11:22:38;;;;;;;12.95;8.75;;;;;;;;;;5051116;28;20044;-76
2023/10/24 11:25:16;;;;;;;13.40;8.80;;;;;;;;;;5052325;28;20093;-76
2023/10/24 11:27:42;;;;;;;;;;;;;;;;;;5070114;27;20485;-76
2023/10/24 11:30:08;;;;;;;13.38;8.10;;;;;;;;;;5056037;28;20003;-76
2023/10/24 11:32:42;;;;;;;13.70;8.38;;;;;;;;;;5017215;28;20063;-77
2023/10/24 11:35:09;;;;;;;12.68;8.70;;;;;;;;;;5024765;28;20492;-77
2023/10/24 11:37:41;;;;;;;17.25;8.88;;;;;;;;;;5037029;28;20094;-78
2023/10/24 11:40:13;;;;;;;15.57;9.18;;;;;;;;;;5047769;28;20040;-77
2023/10/24 11:42:43;;;;;;;14.50;8.00;;;;;;;;;;5028577;27;20052;-77
2023/10/24 11:45:12;;;;;;;13.43;8.82;;;;;;;;;;5040872;28;20063;-77
2023/10/24 11:47:55;;;;;;;15.30;8.48;;;;;;;;;;4994061;28;20522;-77
2023/10/24 11:50:42;;;;;;;13.52;7.97;;;;;;;;;;5005856;28;20040;-77
2023/10/24 11:53:23;;;;;;;11.35;7.68;;;;;;;;;;5052717;28;20036;-77
2023/10/24 11:55:59;;;;;;;11.55;7.85;;;;;;;;;;5031278;28;20812;-76
2023/10/24 11:58:34;;;;;;;11.02;7.90;;;;;;;;;;5045111;28;20427;-78
2023/10/24 12:01:03;;;;;;;12.88;8.82;;;;;;;;;;5040887;28;20078;-78
2023/10/24 12:03:48;;;;;;;13.07;8.50;;;;;;;;;;5059658;28;20100;-78
2023/10/24 12:06:23;;;;;;;12.02;7.63;;;;;;;;;;5043726;28;20044;-78
2023/10/24 12:08:54;;;;;;;14.23;8.63;;;;;;;;;;5033628;28;20031;-78
2023/10/24 12:11:32;;;;;;;13.13;8.35;;;;;;;;;;5021629;28;20076;-78
2023/10/24 12:14:40;;;;;;;14.00;8.68;;;;;;;;;;5047327;28;20412;-78
2023/10/24 12:17:19;;;;;;;12.55;7.55;;;;;;;;;;4979249;28;20480;-77
2023/10/24 12:20:08;;;;;;;16.42;8.18;;;;;;;;;;5042496;28;20060;-77
2023/10/24 12:23:00;;;;;;;15.73;8.23;;;;;;;;;;5049208;28;20252;-77
2023/10/24 12:25:34;;;;;;;14.15;8.30;;;;;;;;;;5026401;28;20067;-77
2023/10/24 12:27:59;;;;;;;19.73;12.25;;;;;;;;;;5063563;28;20041;-77
2023/10/24 12:30:28;;;;;;;13.20;7.72;;;;;;;;;;5058645;28;20423;-77
2023/10/24 12:32:59;;;;;;;11.98;8.25;;;;;;;;;;5056629;28;20083;-77
2023/10/24 12:35:31;;;;;;;14.43;7.90;;;;;;;;;;4996856;28;20443;-77
2023/10/24 12:38:02;;;;;;;12.48;8.25;;;;;;;;;;5027113;28;20046;-77
2023/10/24 12:40:44;;;;;;;14.05;8.45;;;;;;;;;;5056588;28;20080;-77
2023/10/24 12:43:14;;;;;;;15.10;7.53;;;;;;;;;;5005373;28;20044;-77
2023/10/24 12:45:42;;;;;;;11.32;7.28;;;;;;;;;;5016235;28;20104;-76
2023/10/24 12:48:24;;;;;;;12.73;7.88;;;;;;;;;;5011181;28;20491;-77
2023/10/24 12:51:13;;;;;;;12.18;7.75;;;;;;;;;;5010787;28;20124;-77
2023/10/24 12:53:40;;;;;;;13.65;7.47;;;;;;;;;;5009147;28;20784;-77
2023/10/24 12:56:19;;;;;;;;;;;;;;;;;;;;;
2023/10/24 12:58:45;;;;;;;11.65;7.22;;;;;;;;;;5058474;28;20279;-77
2023/10/24 13:01:11;;;;;;;10.80;6.85;;;;;;;;;;5016225;28;20534;-77
2023/10/24 13:04:05;;;;;;;15.27;8.25;;;;;;;;;;5039218;28;20045;-77
2023/10/24 13:06:53;;;;;;;11.00;7.40;;;;;;;;;;5025625;28;20477;-77
2023/10/24 13:09:55;;;;;;;16.70;9.43;;;;;;;;;;5023854;28;20044;-76
2023/10/24 13:12:32;;;;;;;10.65;6.97;;;;;;;;;;5051848;28;20032;-77
2023/10/24 13:15:03;;;;;;;12.63;7.28;;;;;;;;;;5037487;28;20040;-77
2023/10/24 13:17:29;;;;;;;12.23;7.25;;;;;;;;;;5047003;28;20363;-77
2023/10/24 13:19:56;;;;;;;11.77;7.93;;;;;;;;;;5063844;28;20148;-77
2023/10/24 13:22:21;;;;;;;12.13;7.05;;;;;;;;;;5037457;28;20036;-78
2023/10/24 13:24:49;;;;;;;12.93;7.15;;;;;;;;;;5057155;28;20047;-77
2023/10/24 13:27:15;;;;;;;;;;;;;;;;;;5073602;28;20062;-77
2023/10/24 13:29:40;;;;;;;11.90;7.05;;;;;;;;;;5048676;28;20440;-78
2023/10/24 13:32:11;;;;;;;11.07;6.53;;;;;;;;;;5063079;28;20160;-78
2023/10/24 13:34:37;;;;;;;10.65;6.85;;;;;;;;;;5033567;28;20036;-77
2023/10/24 13:37:02;;;;;;;12.35;7.07;;;;;;;;;;5072214;28;20047;-78
2023/10/24 13:39:30;;;;;;;13.50;8.02;;;;;;;;;;5061913;28;20036;-78
2023/10/24 13:41:58;;;;;;;;;;;;;;;;;;5059485;28;20141;-77
2023/10/24 13:44:26;;;;;;;11.80;7.10;;;;;;;;;;5068554;28;19958;-77
2023/10/24 13:46:52;;;;;;;13.15;7.28;;;;;;;;;;5060300;28;20095;-77
2023/10/24 13:49:20;;;;;;;12.13;7.18;;;;;;;;;;5071476;28;20028;-77
2023/10/24 13:51:45;;;;;;;11.80;7.35;;;;;;;;;;5064797;28;20143;-78
2023/10/24 13:54:13;;;;;;;11.98;7.38;;;;;;;;;;5053458;28;20119;-77
2023/10/24 13:56:39;;;;;;;13.85;8.60;;;;;;;;;;5044599;28;20084;-78
2023/10/24 13:59:04;;;;;;;13.23;8.32;;;;;;;;;;5056146;28;20806;-77
2023/10/24 14:01:30;;;;;;;13.15;8.10;;;;;;;;;;5057066;28;20036;-77
2023/10/24 14:04:01;;;;;;;11.77;8.38;;;;;;;;;;5071176;28;20633;-77
2023/10/24 14:06:28;;;;;;;17.33;8.85;;;;;;;;;;5067235;28;20067;-77
2023/10/24 14:09:14;;;;;;;16.73;9.05;;;;;;;;;;5060020;28;20115;-78
2023/10/24 14:11:39;;;;;;;14.80;9.00;;;;;;;;;;5049314;28;20094;-77
2023/10/24 14:14:07;;;;;;;14.50;8.73;;;;;;;;;;5035765;28;20037;-77
2023/10/24 14:16:35;;;;;;;16.33;9.90;;;;;;;;;;5008213;28;20044;-77
2023/10/24 14:19:01;;;;;;;13.80;9.50;;;;;;;;;;5043058;28;20037;-78
2023/10/24 14:21:26;;;;;;;16.98;10.20;;;;;;;;;;5026064;28;20049;-78
2023/10/24 14:23:52;;;;;;;18.50;10.85;;;;;;;;;;5011740;28;20041;-77
2023/10/24 14:26:18;;;;;;;15.25;9.88;;;;;;;;;;5021434;28;20487;-77
2023/10/24 14:28:46;;;;;;;16.40;10.65;;;;;;;;;;5032182;28;20045;-77
2023/10/24 14:31:11;;;;;;;17.35;11.13;;;;;;;;;;5028293;28;20195;-76
2023/10/24 14:33:37;;;;;;;16.35;11.23;;;;;;;;;;5014257;28;20072;-77
2023/10/24 14:36:07;;;;;;;18.65;11.45;;;;;;;;;;5004102;28;20034;-76
2023/10/24 14:38:32;;;;;;;20.35;11.88;;;;;;;;;;5025189;28;20532;-77
2023/10/24 14:41:01;;;;;;;18.70;11.65;;;;;;;;;;5002011;28;20036;-77